Time;durP1;ratioP1;P1;durP2;ratioP2;P2;SDS_P1;SDS_P2;PMS_P1;PMS_P2;Temp;Humidity;BMP_temperature;BMP_pressure;BME280_temperature;BME280_humidity;BME280_pressure;Samples;Min_cycle;Max_cycle;Signal;HPM_P1;HPM_P2
2023/12/29 00:01:23;;;;;;;1999.90;999.90;;;;;;;;;;5131194;27;20196;-77
2023/12/29 00:03:50;;;;;;;1999.90;999.90;;;;;;;;;;5113199;27;20236;-76
2023/12/29 00:06:18;;;;;;;1999.90;999.90;;;;;;;;;;5112728;27;20185;-72
2023/12/29 00:08:46;;;;;;;1999.90;999.90;;;;;;;;;;5131678;27;20911;-78
2023/12/29 00:11:18;;;;;;;1999.90;999.90;;;;;;;;;;5113401;27;20221;-75
2023/12/29 00:13:47;;;;;;;1999.90;999.90;;;;;;;;;;5132207;27;20196;-81
2023/12/29 00:16:14;;;;;;;1999.90;999.90;;;;;;;;;;5129934;27;20268;-82
2023/12/29 00:18:42;;;;;;;1999.90;999.90;;;;;;;;;;5113436;27;20185;-77
2023/12/29 00:21:09;;;;;;;1999.90;999.90;;;;;;;;;;5131478;27;20201;-73
2023/12/29 00:23:36;;;;;;;1999.90;999.90;;;;;;;;;;5110274;27;20679;-71
2023/12/29 00:26:03;;;;;;;1999.90;999.90;;;;;;;;;;5129838;27;20204;-77
2023/12/29 00:28:31;;;;;;;1999.90;999.90;;;;;;;;;;5130372;27;20738;-79
2023/12/29 00:31:00;;;;;;;1999.90;999.90;;;;;;;;;;5118375;27;20197;-69
2023/12/29 00:33:27;;;;;;;1999.90;999.90;;;;;;;;;;5129255;27;20185;-72
2023/12/29 00:35:54;;;;;;;1999.90;999.90;;;;;;;;;;5128731;27;20200;-75
2023/12/29 00:38:21;;;;;;;1999.90;999.90;;;;;;;;;;5130532;27;20600;-73
2023/12/29 00:40:49;;;;;;;1999.90;999.90;;;;;;;;;;5130508;27;20192;-74
2023/12/29 00:43:17;;;;;;;1999.90;999.90;;;;;;;;;;5130921;27;20224;-74
2023/12/29 00:45:44;;;;;;;1999.90;999.90;;;;;;;;;;5129940;27;20640;-75
2023/12/29 00:48:13;;;;;;;1999.90;999.90;;;;;;;;;;5131328;27;20224;-77
2023/12/29 00:50:40;;;;;;;1999.90;999.90;;;;;;;;;;5129986;27;20279;-76
2023/12/29 00:53:07;;;;;;;1999.90;999.90;;;;;;;;;;5129445;27;20192;-76
2023/12/29 00:55:35;;;;;;;1999.90;999.90;;;;;;;;;;5129999;27;20593;-73
2023/12/29 00:58:02;;;;;;;1999.90;999.90;;;;;;;;;;5111479;27;20208;-75
2023/12/29 01:00:29;;;;;;;1999.90;999.90;;;;;;;;;;5130182;27;20215;-80
2023/12/29 01:02:57;;;;;;;1999.90;999.90;;;;;;;;;;5130159;27;20643;-78
2023/12/29 01:05:27;;;;;;;1999.90;999.90;;;;;;;;;;5129950;27;20220;-80
2023/12/29 01:07:55;;;;;;;1999.90;999.90;;;;;;;;;;5130767;27;20230;-74
2023/12/29 01:10:22;;;;;;;1999.90;999.90;;;;;;;;;;5129368;27;20201;-73
2023/12/29 01:12:49;;;;;;;1999.90;999.90;;;;;;;;;;5129900;27;20201;-81
2023/12/29 01:15:17;;;;;;;1999.90;999.90;;;;;;;;;;5110455;27;20675;-78
2023/12/29 01:17:44;;;;;;;1999.90;999.90;;;;;;;;;;5097037;28;20266;-77
2023/12/29 01:20:12;;;;;;;1999.90;999.90;;;;;;;;;;5126698;27;20673;-76
2023/12/29 01:22:40;;;;;;;1999.90;999.90;;;;;;;;;;5123825;27;20197;-70
2023/12/29 01:25:08;;;;;;;1999.90;999.90;;;;;;;;;;5129858;27;20219;-68
2023/12/29 01:27:36;;;;;;;1999.90;999.90;;;;;;;;;;5130667;27;20200;-75
2023/12/29 01:30:03;;;;;;;1999.90;999.90;;;;;;;;;;5130274;27;20232;-77
2023/12/29 01:32:30;;;;;;;1999.90;999.90;;;;;;;;;;5129045;27;20196;-77
2023/12/29 01:34:58;;;;;;;1999.90;999.90;;;;;;;;;;5130213;27;20570;-78
2023/12/29 01:37:25;;;;;;;1999.90;999.90;;;;;;;;;;5128871;27;20202;-78
2023/12/29 01:39:54;;;;;;;1999.90;999.90;;;;;;;;;;5130068;27;20197;-67
2023/12/29 01:42:21;;;;;;;1999.90;999.90;;;;;;;;;;5129077;27;20181;-74
2023/12/29 01:44:52;;;;;;;1999.90;999.90;;;;;;;;;;5129413;27;20231;-74
2023/12/29 01:47:19;;;;;;;1999.90;999.90;;;;;;;;;;5129696;27;20247;-80
2023/12/29 01:49:47;;;;;;;1999.90;999.90;;;;;;;;;;5128908;27;20187;-79
2023/12/29 01:52:17;;;;;;;1999.90;999.90;;;;;;;;;;5130037;27;20191;-73
2023/12/29 01:54:45;;;;;;;1999.90;999.90;;;;;;;;;;5115852;27;20658;-80
2023/12/29 01:57:14;;;;;;;1999.90;999.90;;;;;;;;;;5123258;27;20200;-79
2023/12/29 01:59:41;;;;;;;1999.90;999.90;;;;;;;;;;5122777;27;20196;-74
2023/12/29 02:02:08;;;;;;;1999.90;999.90;;;;;;;;;;5129824;27;20309;-75
2023/12/29 02:04:36;;;;;;;1999.90;999.90;;;;;;;;;;5110376;27;20222;-76
2023/12/29 02:07:04;;;;;;;1999.90;999.90;;;;;;;;;;5129979;27;20638;-80
2023/12/29 02:09:33;;;;;;;1999.90;999.90;;;;;;;;;;5130386;27;20196;-81
2023/12/29 02:12:00;;;;;;;1999.90;999.90;;;;;;;;;;5128911;27;20740;-80
2023/12/29 02:14:29;;;;;;;1999.90;999.90;;;;;;;;;;5116107;27;20197;-80
2023/12/29 02:17:00;;;;;;;1999.90;999.90;;;;;;;;;;5129327;27;20193;-76
2023/12/29 02:19:37;;;;;;;1999.90;999.90;;;;;;;;;;5129508;27;20199;-78
2023/12/29 02:22:05;;;;;;;1999.90;999.90;;;;;;;;;;5128309;27;20200;-74
2023/12/29 02:24:32;;;;;;;1999.90;999.90;;;;;;;;;;5123734;27;20213;-77
2023/12/29 02:27:05;;;;;;;1999.90;999.90;;;;;;;;;;5121840;27;20196;-74
2023/12/29 02:29:34;;;;;;;1999.90;999.90;;;;;;;;;;5122293;27;20328;-71
2023/12/29 02:32:04;;;;;;;1999.90;999.90;;;;;;;;;;5121165;27;20196;-70
2023/12/29 02:34:31;;;;;;;1999.90;999.90;;;;;;;;;;5127946;27;20212;-73
2023/12/29 02:36:59;;;;;;;1999.90;999.90;;;;;;;;;;5128940;27;20196;-79
2023/12/29 02:39:27;;;;;;;1999.90;999.90;;;;;;;;;;5110996;27;20199;-73
2023/12/29 02:41:54;;;;;;;1999.90;999.90;;;;;;;;;;5127928;27;20223;-71
2023/12/29 02:44:23;;;;;;;1999.90;999.90;;;;;;;;;;5129768;27;20216;-80
2023/12/29 02:46:50;;;;;;;1999.90;999.90;;;;;;;;;;5128434;27;20184;-79
2023/12/29 02:49:18;;;;;;;1999.90;999.90;;;;;;;;;;5130277;27;20198;-74
2023/12/29 02:51:47;;;;;;;1999.90;999.90;;;;;;;;;;5129026;27;20196;-71
2023/12/29 02:54:14;;;;;;;1999.90;999.90;;;;;;;;;;5129657;27;20228;-83
2023/12/29 02:56:42;;;;;;;1999.90;999.90;;;;;;;;;;5129599;27;20192;-76
2023/12/29 02:59:09;;;;;;;1999.90;999.90;;;;;;;;;;5111317;27;20204;-79
2023/12/29 03:01:38;;;;;;;1999.90;999.90;;;;;;;;;;5129079;27;20204;-78
2023/12/29 03:04:06;;;;;;;1999.90;999.90;;;;;;;;;;5110740;27;20224;-73
2023/12/29 03:06:33;;;;;;;1999.90;999.90;;;;;;;;;;5128499;27;20188;-81
2023/12/29 03:09:00;;;;;;;1999.90;999.90;;;;;;;;;;5128944;27;20197;-75
2023/12/29 03:11:27;;;;;;;1999.90;999.90;;;;;;;;;;5128513;27;20887;-80
2023/12/29 03:13:55;;;;;;;1999.90;999.90;;;;;;;;;;5128571;27;20200;-80
2023/12/29 03:16:22;;;;;;;1999.90;999.90;;;;;;;;;;5110311;28;20551;-79
2023/12/29 03:18:51;;;;;;;1999.90;999.90;;;;;;;;;;5107547;28;20189;-83
2023/12/29 03:21:18;;;;;;;1999.90;999.90;;;;;;;;;;5128419;28;20193;-80
2023/12/29 03:23:46;;;;;;;1999.90;999.90;;;;;;;;;;5128089;28;20189;-76
2023/12/29 03:26:13;;;;;;;1999.90;999.90;;;;;;;;;;5126811;28;20193;-83
2023/12/29 03:28:40;;;;;;;1999.90;999.90;;;;;;;;;;5129227;28;20670;-72
2023/12/29 03:31:08;;;;;;;1999.90;999.90;;;;;;;;;;5091612;28;20674;-76
2023/12/29 03:33:35;;;;;;;1999.90;999.90;;;;;;;;;;5100572;28;20194;-70
2023/12/29 03:36:04;;;;;;;1999.90;999.90;;;;;;;;;;5106828;28;20675;-79
2023/12/29 03:38:33;;;;;;;1999.90;999.90;;;;;;;;;;5103906;28;20191;-76
2023/12/29 03:41:01;;;;;;;1999.90;999.90;;;;;;;;;;5097423;28;20201;-78
2023/12/29 03:43:28;;;;;;;1999.90;999.90;;;;;;;;;;5102025;28;20201;-78
2023/12/29 03:45:56;;;;;;;1999.90;999.90;;;;;;;;;;5103643;28;20515;-74
2023/12/29 03:48:23;;;;;;;1999.90;999.90;;;;;;;;;;5104516;28;20696;-79
2023/12/29 03:50:50;;;;;;;1999.90;999.90;;;;;;;;;;5098641;28;20197;-69
2023/12/29 03:53:20;;;;;;;1999.90;999.90;;;;;;;;;;5111446;28;20203;-77
2023/12/29 03:55:47;;;;;;;1999.90;999.90;;;;;;;;;;5111485;28;20255;-82
2023/12/29 03:58:14;;;;;;;1999.90;999.90;;;;;;;;;;5112468;28;20197;-74
2023/12/29 04:00:41;;;;;;;1999.90;999.90;;;;;;;;;;5110823;28;20197;-75
2023/12/29 04:03:09;;;;;;;1999.90;999.90;;;;;;;;;;5111581;28;20228;-70
2023/12/29 04:05:36;;;;;;;1999.90;999.90;;;;;;;;;;5110402;28;20595;-71
2023/12/29 04:08:03;;;;;;;1999.90;999.90;;;;;;;;;;5108690;28;20190;-69
2023/12/29 04:10:32;;;;;;;1999.90;999.90;;;;;;;;;;5099554;28;20203;-83
2023/12/29 04:13:01;;;;;;;1999.90;999.90;;;;;;;;;;5103744;28;20200;-72
2023/12/29 04:15:28;;;;;;;1999.90;999.90;;;;;;;;;;5102230;28;20234;-73
2023/12/29 04:17:55;;;;;;;1999.90;999.90;;;;;;;;;;5110506;28;20642;-72
2023/12/29 04:20:24;;;;;;;1999.90;999.90;;;;;;;;;;5106589;28;20205;-79
2023/12/29 04:22:51;;;;;;;1999.90;999.90;;;;;;;;;;5109215;28;20201;-72
2023/12/29 04:25:19;;;;;;;1999.90;999.90;;;;;;;;;;5102432;28;20231;-85
2023/12/29 04:27:47;;;;;;;1999.90;999.90;;;;;;;;;;5104444;28;20543;-78
2023/12/29 04:30:15;;;;;;;1999.90;999.90;;;;;;;;;;5090948;28;20224;-75
2023/12/29 04:32:42;;;;;;;1999.90;999.90;;;;;;;;;;5093849;28;20197;-81
2023/12/29 04:35:12;;;;;;;1999.90;999.90;;;;;;;;;;5100391;28;20205;-72
2023/12/29 04:37:39;;;;;;;1999.90;999.90;;;;;;;;;;5104221;28;20276;-84
2023/12/29 04:40:07;;;;;;;1999.90;999.90;;;;;;;;;;5109689;28;20644;-67
2023/12/29 04:42:35;;;;;;;1999.90;999.90;;;;;;;;;;5110363;28;20216;-79
2023/12/29 04:45:04;;;;;;;1999.90;999.90;;;;;;;;;;5108585;28;20294;-73
2023/12/29 04:47:31;;;;;;;1999.90;999.90;;;;;;;;;;5109028;28;20656;-74
2023/12/29 04:49:58;;;;;;;1999.90;999.90;;;;;;;;;;5107656;28;20193;-77
2023/12/29 04:52:25;;;;;;;1999.90;999.90;;;;;;;;;;5109525;28;20193;-76
2023/12/29 04:54:53;;;;;;;1999.90;999.90;;;;;;;;;;5106182;28;20276;-80
2023/12/29 04:57:20;;;;;;;1999.90;999.90;;;;;;;;;;5110119;28;20197;-73
2023/12/29 04:59:48;;;;;;;1999.90;999.90;;;;;;;;;;5100747;28;20202;-67
2023/12/29 05:02:16;;;;;;;1999.90;999.90;;;;;;;;;;5110403;28;20205;-80
2023/12/29 05:04:44;;;;;;;1999.90;999.90;;;;;;;;;;5100247;28;20228;-70
2023/12/29 05:07:11;;;;;;;1999.90;999.90;;;;;;;;;;5098390;28;20646;-70
2023/12/29 05:09:38;;;;;;;1999.90;999.90;;;;;;;;;;5097674;28;20263;-77
2023/12/29 05:12:06;;;;;;;1999.90;999.90;;;;;;;;;;5097822;28;20204;-68
2023/12/29 05:14:33;;;;;;;1999.90;999.90;;;;;;;;;;5094840;28;20652;-82
2023/12/29 05:17:01;;;;;;;1999.90;999.90;;;;;;;;;;5105687;28;20196;-67
2023/12/29 05:19:29;;;;;;;1999.90;999.90;;;;;;;;;;5104210;28;20189;-81
2023/12/29 05:21:57;;;;;;;1999.90;999.90;;;;;;;;;;5100437;28;20177;-82
2023/12/29 05:24:24;;;;;;;1999.90;999.90;;;;;;;;;;5094497;28;20221;-70
2023/12/29 05:26:51;;;;;;;1999.90;999.90;;;;;;;;;;5102965;28;20211;-78
2023/12/29 05:29:19;;;;;;;1999.90;999.90;;;;;;;;;;5101153;28;20725;-69
2023/12/29 05:31:46;;;;;;;1999.90;999.90;;;;;;;;;;5108937;28;20204;-81
2023/12/29 05:34:13;;;;;;;1999.90;999.90;;;;;;;;;;5098588;28;20195;-74
2023/12/29 05:36:42;;;;;;;1999.90;999.90;;;;;;;;;;5096489;28;20198;-73
2023/12/29 05:39:10;;;;;;;1999.90;999.90;;;;;;;;;;5095358;28;20657;-69
2023/12/29 05:41:37;;;;;;;1999.90;999.90;;;;;;;;;;5099357;28;20190;-78
2023/12/29 05:44:04;;;;;;;1999.90;999.90;;;;;;;;;;5093116;28;20573;-73
2023/12/29 05:46:32;;;;;;;1999.90;999.90;;;;;;;;;;5093174;28;20247;-76
2023/12/29 05:48:59;;;;;;;1999.90;999.90;;;;;;;;;;5097058;28;20277;-68
2023/12/29 05:51:27;;;;;;;1999.90;999.90;;;;;;;;;;5097139;28;20204;-82
2023/12/29 05:53:55;;;;;;;1999.90;999.90;;;;;;;;;;5095849;28;20317;-79
2023/12/29 05:56:23;;;;;;;1999.90;999.90;;;;;;;;;;5096194;28;20201;-79
2023/12/29 05:58:51;;;;;;;1999.90;999.90;;;;;;;;;;5094883;28;20280;-76
2023/12/29 06:01:19;;;;;;;1999.90;999.90;;;;;;;;;;5090882;28;20201;-78
2023/12/29 06:03:46;;;;;;;1999.90;999.90;;;;;;;;;;5096296;28;20195;-74
2023/12/29 06:06:13;;;;;;;1999.90;999.90;;;;;;;;;;5092818;28;20311;-77
2023/12/29 06:08:41;;;;;;;1999.90;999.90;;;;;;;;;;5095645;28;20634;-67
2023/12/29 06:11:10;;;;;;;1999.90;999.90;;;;;;;;;;5094441;28;20203;-79
2023/12/29 06:13:37;;;;;;;1999.90;999.90;;;;;;;;;;5094945;28;20182;-80
2023/12/29 06:16:05;;;;;;;1999.90;999.90;;;;;;;;;;5096249;28;20202;-69
2023/12/29 06:18:32;;;;;;;1999.90;999.90;;;;;;;;;;5092824;28;20222;-78
2023/12/29 06:20:59;;;;;;;1999.90;999.90;;;;;;;;;;5094715;28;20249;-68
2023/12/29 06:23:27;;;;;;;1999.90;999.90;;;;;;;;;;5095414;28;21554;-78
2023/12/29 06:25:54;;;;;;;1999.90;999.90;;;;;;;;;;5096371;28;21073;-72
2023/12/29 06:28:23;;;;;;;1999.90;999.90;;;;;;;;;;5095865;28;20199;-82
2023/12/29 06:30:50;;;;;;;1999.90;999.90;;;;;;;;;;5097347;28;20233;-81
2023/12/29 06:33:20;;;;;;;1999.90;999.90;;;;;;;;;;5094777;28;20193;-80
2023/12/29 06:35:48;;;;;;;1999.90;999.90;;;;;;;;;;5096085;28;20284;-81
2023/12/29 06:38:15;;;;;;;1999.90;999.90;;;;;;;;;;5098892;28;20526;-88
2023/12/29 06:40:43;;;;;;;1999.90;999.90;;;;;;;;;;5096359;28;20283;-80
2023/12/29 06:43:10;;;;;;;1999.90;999.90;;;;;;;;;;5095427;28;20205;-77
2023/12/29 06:45:39;;;;;;;1999.90;999.90;;;;;;;;;;5098287;28;20259;-77
2023/12/29 06:48:06;;;;;;;1999.90;999.90;;;;;;;;;;5094207;28;20195;-85
2023/12/29 06:50:34;;;;;;;1999.90;999.90;;;;;;;;;;5093817;28;20737;-79
2023/12/29 06:53:01;;;;;;;1999.90;999.90;;;;;;;;;;5092762;28;20199;-69
2023/12/29 06:55:28;;;;;;;1999.90;999.90;;;;;;;;;;5095794;28;20276;-86
2023/12/29 06:57:56;;;;;;;1999.90;999.90;;;;;;;;;;5090644;28;20193;-74
2023/12/29 07:00:24;;;;;;;1999.90;999.90;;;;;;;;;;5097130;28;20213;-75
2023/12/29 07:02:53;;;;;;;1999.90;999.90;;;;;;;;;;5096775;28;20686;-76
2023/12/29 07:05:20;;;;;;;1999.90;999.90;;;;;;;;;;5099742;28;20232;-71
2023/12/29 07:07:47;;;;;;;1999.90;999.90;;;;;;;;;;5106361;28;20303;-72
2023/12/29 07:10:15;;;;;;;1999.90;999.90;;;;;;;;;;5105221;28;20211;-74
2023/12/29 07:12:42;;;;;;;1999.90;999.90;;;;;;;;;;5106594;28;20551;-79
2023/12/29 07:15:10;;;;;;;1999.90;999.90;;;;;;;;;;5106478;28;20276;-72
2023/12/29 07:17:37;;;;;;;1999.90;999.90;;;;;;;;;;5107779;28;20255;-81
2023/12/29 07:20:08;;;;;;;1999.90;999.90;;;;;;;;;;5106455;28;20212;-79
2023/12/29 07:22:35;;;;;;;1999.90;999.90;;;;;;;;;;5100133;28;20286;-73
2023/12/29 07:25:02;;;;;;;1999.90;999.90;;;;;;;;;;5106994;28;20464;-73
2023/12/29 07:27:30;;;;;;;1999.90;999.90;;;;;;;;;;5107023;28;20562;-66
2023/12/29 07:29:58;;;;;;;1999.90;999.90;;;;;;;;;;5108037;28;20228;-70
2023/12/29 07:32:25;;;;;;;1999.90;999.90;;;;;;;;;;5104727;28;20214;-76
2023/12/29 07:34:52;;;;;;;1999.90;999.90;;;;;;;;;;5101305;28;20282;-74
2023/12/29 07:37:21;;;;;;;1999.90;999.90;;;;;;;;;;5102353;28;20203;-65
2023/12/29 07:39:48;;;;;;;1999.90;999.90;;;;;;;;;;5089623;28;20196;-64
2023/12/29 07:42:17;;;;;;;1999.90;999.90;;;;;;;;;;5103234;28;20544;-74
2023/12/29 07:44:44;;;;;;;1999.90;999.90;;;;;;;;;;5106654;28;20528;-69
2023/12/29 07:47:11;;;;;;;1999.90;999.90;;;;;;;;;;5106603;28;20757;-79
2023/12/29 07:49:39;;;;;;;1999.90;999.90;;;;;;;;;;5106348;28;20206;-80
2023/12/29 07:52:06;;;;;;;1999.90;999.90;;;;;;;;;;5106239;28;20191;-74
2023/12/29 07:54:35;;;;;;;1999.90;999.90;;;;;;;;;;5106669;28;20200;-70
2023/12/29 07:57:02;;;;;;;1999.90;999.90;;;;;;;;;;5106934;28;20207;-72
2023/12/29 07:59:30;;;;;;;1999.90;999.90;;;;;;;;;;5106388;28;20192;-73
2023/12/29 08:01:58;;;;;;;1999.90;999.90;;;;;;;;;;5106111;28;20196;-69
2023/12/29 08:04:25;;;;;;;1999.90;999.90;;;;;;;;;;5106580;28;20620;-64
2023/12/29 08:06:53;;;;;;;1999.90;999.90;;;;;;;;;;5106123;28;20320;-75
2023/12/29 08:09:21;;;;;;;1999.90;999.90;;;;;;;;;;5106728;28;20674;-77
2023/12/29 08:11:49;;;;;;;1999.90;999.90;;;;;;;;;;5105537;28;20197;-69
2023/12/29 08:14:17;;;;;;;1999.90;999.90;;;;;;;;;;5105174;28;20194;-66
2023/12/29 08:16:44;;;;;;;1999.90;999.90;;;;;;;;;;5104370;28;20317;-75
2023/12/29 08:19:11;;;;;;;1999.90;999.90;;;;;;;;;;5106502;28;20203;-66
2023/12/29 08:21:39;;;;;;;1999.90;999.90;;;;;;;;;;5109388;28;20678;-68
2023/12/29 08:24:06;;;;;;;1999.90;999.90;;;;;;;;;;5110287;28;20205;-76
2023/12/29 08:26:34;;;;;;;1999.90;999.90;;;;;;;;;;5110542;28;21056;-76
2023/12/29 08:29:03;;;;;;;1999.90;999.90;;;;;;;;;;5109656;28;20199;-75
2023/12/29 08:31:30;;;;;;;1999.90;999.90;;;;;;;;;;5124736;27;20606;-72
2023/12/29 08:33:57;;;;;;;1999.90;999.90;;;;;;;;;;5112044;27;20282;-71
2023/12/29 08:36:25;;;;;;;1999.90;999.90;;;;;;;;;;5130290;27;20549;-76
2023/12/29 08:38:53;;;;;;;1999.90;999.90;;;;;;;;;;5111692;27;20682;-68
2023/12/29 08:41:20;;;;;;;1999.90;999.90;;;;;;;;;;5130326;27;20286;-72
2023/12/29 08:43:47;;;;;;;1999.90;999.90;;;;;;;;;;5130695;27;20189;-66
2023/12/29 08:46:16;;;;;;;1999.90;999.90;;;;;;;;;;5129816;27;20242;-67
2023/12/29 08:48:43;;;;;;;1999.90;999.90;;;;;;;;;;5112717;27;20190;-75
2023/12/29 08:51:11;;;;;;;1999.90;999.90;;;;;;;;;;5129709;27;20682;-73
2023/12/29 08:53:38;;;;;;;1999.90;999.90;;;;;;;;;;5130259;27;20189;-73
2023/12/29 08:56:06;;;;;;;1999.90;999.90;;;;;;;;;;5131030;27;20526;-72
2023/12/29 08:58:33;;;;;;;1999.90;999.90;;;;;;;;;;5129669;27;20195;-75
2023/12/29 09:01:00;;;;;;;1999.90;999.90;;;;;;;;;;5130983;27;20759;-76
2023/12/29 09:03:29;;;;;;;1999.90;999.90;;;;;;;;;;5129492;27;20207;-70
2023/12/29 09:05:58;;;;;;;1999.90;999.90;;;;;;;;;;5112002;27;20226;-69
2023/12/29 09:08:26;;;;;;;1999.90;999.90;;;;;;;;;;5130160;27;20543;-77
2023/12/29 09:10:53;;;;;;;1999.90;999.90;;;;;;;;;;5129901;27;20204;-75
2023/12/29 09:13:22;;;;;;;1999.90;999.90;;;;;;;;;;5130010;27;20200;-71
2023/12/29 09:15:50;;;;;;;1999.90;999.90;;;;;;;;;;5100735;28;20200;-78
2023/12/29 09:18:17;;;;;;;1999.90;999.90;;;;;;;;;;5128702;27;20203;-80
2023/12/29 09:20:46;;;;;;;1999.90;999.90;;;;;;;;;;5129488;27;20215;-72
2023/12/29 09:23:13;;;;;;;1999.90;999.90;;;;;;;;;;5127963;27;20264;-73
2023/12/29 09:25:40;;;;;;;1999.90;999.90;;;;;;;;;;5129830;27;20673;-75
2023/12/29 09:28:08;;;;;;;1999.90;999.90;;;;;;;;;;5129133;27;20205;-72
2023/12/29 09:30:35;;;;;;;1999.90;999.90;;;;;;;;;;5113954;27;21040;-75
2023/12/29 09:33:03;;;;;;;1999.90;999.90;;;;;;;;;;5102370;28;20833;-69
2023/12/29 09:35:30;;;;;;;1999.90;999.90;;;;;;;;;;5121967;27;20244;-76
2023/12/29 09:38:00;;;;;;;1999.90;999.90;;;;;;;;;;5128145;27;20199;-69
2023/12/29 09:40:27;;;;;;;1999.90;999.90;;;;;;;;;;5128040;27;20201;-71
2023/12/29 09:42:55;;;;;;;1999.90;999.90;;;;;;;;;;5123594;27;20202;-73
2023/12/29 09:45:25;;;;;;;1999.90;999.90;;;;;;;;;;5123392;27;20195;-74
2023/12/29 09:47:52;;;;;;;1999.90;999.90;;;;;;;;;;5128345;27;20207;-74
2023/12/29 09:50:20;;;;;;;1999.90;999.90;;;;;;;;;;5123195;27;20200;-72
2023/12/29 09:52:49;;;;;;;1999.90;999.90;;;;;;;;;;5128748;27;20195;-77
2023/12/29 09:55:19;;;;;;;1999.90;999.90;;;;;;;;;;5128296;27;20196;-70
2023/12/29 09:57:48;;;;;;;1999.90;999.90;;;;;;;;;;5126703;27;20199;-70
2023/12/29 10:00:17;;;;;;;1999.90;999.90;;;;;;;;;;5121763;27;20243;-71
2023/12/29 10:02:45;;;;;;;1999.90;999.90;;;;;;;;;;5128106;27;20793;-74
2023/12/29 10:05:12;;;;;;;1999.90;999.90;;;;;;;;;;5128314;27;20558;-70
2023/12/29 10:07:40;;;;;;;1999.90;999.90;;;;;;;;;;5109307;27;20224;-65
2023/12/29 10:10:08;;;;;;;1999.90;999.90;;;;;;;;;;5128202;27;20203;-74
2023/12/29 10:12:38;;;;;;;1999.90;999.90;;;;;;;;;;5127527;27;20196;-76
2023/12/29 10:15:10;;;;;;;1999.90;999.90;;;;;;;;;;5129213;27;20190;-72
2023/12/29 10:17:45;;;;;;;1999.90;999.90;;;;;;;;;;5103823;27;20199;-69
2023/12/29 10:20:18;;;;;;;1999.90;999.90;;;;;;;;;;5101186;28;20191;-78
2023/12/29 10:22:49;;;;;;;1999.90;999.90;;;;;;;;;;5124875;27;20198;-70
2023/12/29 10:25:17;;;;;;;1999.90;999.90;;;;;;;;;;5128129;27;20554;-74
2023/12/29 10:27:45;;;;;;;1999.90;999.90;;;;;;;;;;5124097;27;20241;-75
2023/12/29 10:30:14;;;;;;;1999.90;999.90;;;;;;;;;;5128356;27;20242;-73
2023/12/29 10:32:42;;;;;;;1999.90;999.90;;;;;;;;;;5128666;27;20218;-73
2023/12/29 10:35:10;;;;;;;1999.90;999.90;;;;;;;;;;5129024;27;20587;-81
2023/12/29 10:37:38;;;;;;;1999.90;999.90;;;;;;;;;;5128468;27;20275;-72
2023/12/29 10:40:07;;;;;;;1999.90;999.90;;;;;;;;;;5128650;27;20204;-72
2023/12/29 10:42:34;;;;;;;1999.90;999.90;;;;;;;;;;5127685;27;20752;-74
2023/12/29 10:45:16;;;;;;;1999.90;999.90;;;;;;;;;;5110608;27;20198;-74
2023/12/29 10:47:46;;;;;;;1999.90;999.90;;;;;;;;;;5113025;27;20219;-76
2023/12/29 10:50:14;;;;;;;1999.90;999.90;;;;;;;;;;5110527;27;20642;-72
2023/12/29 10:52:42;;;;;;;1999.90;999.90;;;;;;;;;;5128230;27;20202;-73
2023/12/29 10:55:10;;;;;;;1999.90;999.90;;;;;;;;;;5127566;27;20219;-75
2023/12/29 10:57:38;;;;;;;1999.90;999.90;;;;;;;;;;5109756;27;20816;-78
2023/12/29 11:00:07;;;;;;;1999.90;999.90;;;;;;;;;;5128318;27;20309;-76
2023/12/29 11:02:35;;;;;;;1999.90;999.90;;;;;;;;;;5119070;27;20207;-78
2023/12/29 11:05:07;;;;;;;1999.90;999.90;;;;;;;;;;5110375;27;20195;-77
2023/12/29 11:07:34;;;;;;;1999.90;999.90;;;;;;;;;;5109966;27;20219;-70
2023/12/29 11:10:04;;;;;;;1999.90;999.90;;;;;;;;;;5127630;27;20203;-80
2023/12/29 11:12:32;;;;;;;1999.90;999.90;;;;;;;;;;5128201;27;20200;-75
2023/12/29 11:15:00;;;;;;;1999.90;999.90;;;;;;;;;;5110537;28;20329;-70
2023/12/29 11:17:27;;;;;;;1999.90;999.90;;;;;;;;;;5127971;27;20471;-68
2023/12/29 11:19:55;;;;;;;1999.90;999.90;;;;;;;;;;5125384;27;20876;-76
2023/12/29 11:22:24;;;;;;;1999.90;999.90;;;;;;;;;;5127193;27;20195;-75
2023/12/29 11:24:51;;;;;;;1999.90;999.90;;;;;;;;;;5128242;28;20196;-75
2023/12/29 11:27:18;;;;;;;1999.90;999.90;;;;;;;;;;5128231;28;20242;-76
2023/12/29 11:29:47;;;;;;;1999.90;999.90;;;;;;;;;;5120601;28;20677;-76
2023/12/29 11:32:18;;;;;;;1999.90;999.90;;;;;;;;;;5128362;28;20655;-71
2023/12/29 11:34:55;;;;;;;1999.90;999.90;;;;;;;;;;5126995;28;20549;-69
2023/12/29 11:37:29;;;;;;;1999.90;999.90;;;;;;;;;;5127187;28;20195;-67
2023/12/29 11:40:02;;;;;;;1999.90;999.90;;;;;;;;;;5125868;28;20232;-70
2023/12/29 11:42:31;;;;;;;1999.90;999.90;;;;;;;;;;5126240;28;20195;-69
2023/12/29 11:44:59;;;;;;;1999.90;999.90;;;;;;;;;;5118574;28;20191;-67
2023/12/29 11:47:39;;;;;;;1999.90;999.90;;;;;;;;;;5123889;28;20219;-69
2023/12/29 11:50:07;;;;;;;1999.90;999.90;;;;;;;;;;5124565;28;20286;-72
2023/12/29 11:52:36;;;;;;;1999.90;999.90;;;;;;;;;;5125598;28;20978;-75
2023/12/29 11:55:10;;;;;;;1999.90;999.90;;;;;;;;;;5127612;27;20187;-70
2023/12/29 11:57:38;;;;;;;1999.90;999.90;;;;;;;;;;5130794;27;20697;-68
2023/12/29 12:00:06;;;;;;;1999.90;999.90;;;;;;;;;;5125139;27;20721;-71
2023/12/29 12:02:33;;;;;;;1999.90;999.90;;;;;;;;;;5123100;27;20192;-75
2023/12/29 12:05:00;;;;;;;1999.90;999.90;;;;;;;;;;5130328;27;20203;-67
2023/12/29 12:07:42;;;;;;;1999.90;999.90;;;;;;;;;;5130668;27;20325;-69
2023/12/29 12:10:29;;;;;;;1999.90;999.90;;;;;;;;;;5129550;27;20218;-68
2023/12/29 12:12:59;;;;;;;1999.90;999.90;;;;;;;;;;5126015;27;20195;-71
2023/12/29 12:15:33;;;;;;;1999.90;999.90;;;;;;;;;;5130340;27;20651;-75
2023/12/29 12:18:04;;;;;;;1999.90;999.90;;;;;;;;;;5131409;27;20545;-67
2023/12/29 12:20:31;;;;;;;1999.90;999.90;;;;;;;;;;5131413;27;20197;-75
2023/12/29 12:22:59;;;;;;;1999.90;999.90;;;;;;;;;;5122948;27;20280;-73
2023/12/29 12:25:27;;;;;;;1999.90;999.90;;;;;;;;;;5112509;27;20204;-72
2023/12/29 12:27:55;;;;;;;1999.90;999.90;;;;;;;;;;5130207;27;20459;-68
2023/12/29 12:30:24;;;;;;;1999.90;999.90;;;;;;;;;;5130326;27;20232;-71
2023/12/29 12:32:59;;;;;;;1999.90;999.90;;;;;;;;;;5130244;27;20196;-76
2023/12/29 12:35:27;;;;;;;1999.90;999.90;;;;;;;;;;5130027;27;20207;-76
2023/12/29 12:38:08;;;;;;;1999.90;999.90;;;;;;;;;;5130698;27;20187;-73
2023/12/29 12:40:35;;;;;;;1999.90;999.90;;;;;;;;;;5130413;27;20190;-79
2023/12/29 12:43:03;;;;;;;1999.90;999.90;;;;;;;;;;5131082;27;20195;-75
2023/12/29 12:45:35;;;;;;;1999.90;999.90;;;;;;;;;;5130698;27;20192;-80
2023/12/29 12:48:05;;;;;;;1999.90;999.90;;;;;;;;;;5130253;27;20218;-78
2023/12/29 12:50:32;;;;;;;1999.90;999.90;;;;;;;;;;5130192;27;20189;-79
2023/12/29 12:53:00;;;;;;;1999.90;999.90;;;;;;;;;;5130332;27;20670;-74
2023/12/29 12:55:27;;;;;;;1999.90;999.90;;;;;;;;;;5128488;27;20292;-68
2023/12/29 12:57:56;;;;;;;1999.90;999.90;;;;;;;;;;5124064;27;20678;-79
2023/12/29 13:00:24;;;;;;;1999.90;999.90;;;;;;;;;;5130387;27;20185;-80
2023/12/29 13:02:52;;;;;;;1999.90;999.90;;;;;;;;;;5129947;27;20196;-74
2023/12/29 13:05:21;;;;;;;1999.90;999.90;;;;;;;;;;5129234;27;20585;-72
2023/12/29 13:07:48;;;;;;;1999.90;999.90;;;;;;;;;;5130173;27;20219;-81
2023/12/29 13:10:15;;;;;;;1999.90;999.90;;;;;;;;;;5095944;27;20228;-80
2023/12/29 13:12:54;;;;;;;1999.90;999.90;;;;;;;;;;5117192;27;20200;-72
2023/12/29 13:15:21;;;;;;;1999.90;999.90;;;;;;;;;;5114711;27;20188;-75
2023/12/29 13:17:55;;;;;;;1999.90;999.90;;;;;;;;;;5115935;27;20203;-79
2023/12/29 13:20:22;;;;;;;1999.90;999.90;;;;;;;;;;5116505;27;20184;-69
2023/12/29 13:22:51;;;;;;;1999.90;999.90;;;;;;;;;;5116893;27;20196;-76
2023/12/29 13:25:20;;;;;;;1999.90;999.90;;;;;;;;;;5118017;27;20256;-76
2023/12/29 13:27:48;;;;;;;1999.90;999.90;;;;;;;;;;5112870;27;20239;-71
2023/12/29 13:30:16;;;;;;;1999.90;999.90;;;;;;;;;;5113000;27;20232;-72
2023/12/29 13:32:45;;;;;;;1999.90;999.90;;;;;;;;;;5112031;27;20212;-68
2023/12/29 13:35:20;;;;;;;1999.90;999.90;;;;;;;;;;5114074;27;20261;-69
2023/12/29 13:37:50;;;;;;;1999.90;999.90;;;;;;;;;;5113191;27;20555;-71
2023/12/29 13:40:19;;;;;;;1999.90;999.90;;;;;;;;;;5093920;27;20202;-72
2023/12/29 13:42:48;;;;;;;1999.90;999.90;;;;;;;;;;5113069;27;20640;-73
2023/12/29 13:45:18;;;;;;;1999.90;999.90;;;;;;;;;;5114598;27;20563;-71
2023/12/29 13:47:46;;;;;;;1999.90;999.90;;;;;;;;;;5114545;27;20246;-68